Time;durP1;ratioP1;P1;durP2;ratioP2;P2;SDS_P1;SDS_P2;PMS_P1;PMS_P2;Temp;Humidity;BMP_temperature;BMP_pressure;BME280_temperature;BME280_humidity;BME280_pressure;Samples;Min_cycle;Max_cycle;Signal;HPM_P1;HPM_P2
2022/10/04 00:02:20;;;;;;;;;;;;;;;;;;2616845;54;20018;-63
2022/10/04 00:04:50;;;;;;;;;;;;;;;;;;2617100;54;20138;-65
2022/10/04 00:07:19;;;;;;;;;;;;;;;;;;2617039;54;20073;-65
2022/10/04 00:09:49;;;;;;;;;;;;;;;;;;2616810;54;20074;-64
2022/10/04 00:12:18;;;;;;;;;;;;;;;;;;2616801;54;20065;-64
2022/10/04 00:14:47;;;;;;;;;;;;;;;;;;2617005;54;20122;-66
2022/10/04 00:17:17;;;;;;;;;;;;;;;;;;2616974;54;20113;-64
2022/10/04 00:19:46;;;;;;;;;;;;;;;;;;2617550;54;20022;-64
2022/10/04 00:22:16;;;;;;;;;;;;;;;;;;2617254;54;20023;-64
2022/10/04 00:24:45;;;;;;;;;;;;;;;;;;2617174;54;20022;-64
2022/10/04 00:27:14;;;;;;;;;;;;;;;;;;2617242;54;20030;-63
2022/10/04 00:29:44;;;;;;;;;;;;;;;;;;2616621;54;20118;-63
2022/10/04 00:32:13;;;;;;;;;;;;;;;;;;2616919;54;20138;-63
2022/10/04 00:34:42;;;;;;;;;;;;;;;;;;2617241;54;20455;-64
2022/10/04 00:37:12;;;;;;;;;;;;;;;;;;2617143;54;20021;-64
2022/10/04 00:39:41;;;;;;;;;;;;;;;;;;2616749;54;20041;-64
2022/10/04 00:42:10;;;;;;;;;;;;;;;;;;2616974;54;20117;-64
2022/10/04 00:44:40;;;;;;;;;;;;;;;;;;2616810;54;20053;-64
2022/10/04 00:47:09;;;;;;;;;;;;;;;;;;2617078;54;20118;-64
2022/10/04 00:49:39;;;;;;;;;;;;;;;;;;2617020;54;20581;-64
2022/10/04 00:52:08;;;;;;;;;;;;;;;;;;2617159;54;20499;-64
2022/10/04 00:54:40;;;;;;;;;;;;;;;;;;2617713;39;20396;-64
2022/10/04 00:57:09;;;;;;;;;;;;;;;;;;2616944;54;20050;-63
2022/10/04 00:59:38;;;;;;;;;;;;;;;;;;2616762;54;20126;-64
2022/10/04 01:02:08;;;;;;;;;;;;;;;;;;2616887;54;20077;-64
2022/10/04 01:04:37;;;;;;;;;;;;;;;;;;2616933;54;20018;-64
2022/10/04 01:07:06;;;;;;;;;;;;;;;;;;2616877;54;20053;-63
2022/10/04 01:09:36;;;;;;;;;;;;;;;;;;2617030;54;20117;-63
2022/10/04 01:12:05;;;;;;;;;;;;;;;;;;2616764;54;20037;-64
2022/10/04 01:14:34;;;;;;;;;;;;;;;;;;2616694;54;20030;-64
2022/10/04 01:17:04;;;;;;;;;;;;;;;;;;2616779;54;20018;-64
2022/10/04 01:19:33;;;;;;;;;;;;;;;;;;2617135;54;20034;-64
2022/10/04 01:22:02;;;;;;;;;;;;;;;;;;2616952;54;20026;-64
2022/10/04 01:24:32;;;;;;;;;;;;;;;;;;2616800;39;20349;-63
2022/10/04 01:27:01;;;;;;;;;;;;;;;;;;2616866;54;20088;-63
2022/10/04 01:29:30;;;;;;;;;;;;;;;;;;2616706;54;20109;-65
2022/10/04 01:32:00;;;;;;;;;;;;;;;;;;2616773;54;20145;-64
2022/10/04 01:34:29;;;;;;;;;;;;;;;;;;2616753;54;20019;-63
2022/10/04 01:36:58;;;;;;;;;;;;;;;;;;2616694;54;20037;-64
2022/10/04 01:39:28;;;;;;;;;;;;;;;;;;2617031;39;20524;-64
2022/10/04 01:41:57;;;;;;;;;;;;;;;;;;2617888;39;20325;-64
2022/10/04 01:44:26;;;;;;;;;;;;;;;;;;2617142;54;20057;-63
2022/10/04 01:46:56;;;;;;;;;;;;;;;;;;2617784;54;20019;-64
2022/10/04 01:49:25;;;;;;;;;;;;;;;;;;2617369;54;20110;-64
2022/10/04 01:51:55;;;;;;;;;;;;;;;;;;2617306;54;20045;-65
2022/10/04 01:54:24;;;;;;;;;;;;;;;;;;2617699;54;20081;-64
2022/10/04 01:56:53;;;;;;;;;;;;;;;;;;2617621;54;20081;-64
2022/10/04 01:59:23;;;;;;;;;;;;;;;;;;2617471;54;20113;-64
2022/10/04 02:01:52;;;;;;;;;;;;;;;;;;2617341;54;20026;-64
2022/10/04 02:04:21;;;;;;;;;;;;;;;;;;2617567;54;20046;-64
2022/10/04 02:06:52;;;;;;;;;;;;;;;;;;2617707;54;20026;-64
2022/10/04 02:09:22;;;;;;;;;;;;;;;;;;2617901;54;20018;-65
2022/10/04 02:11:52;;;;;;;;;;;;;;;;;;2617714;54;20030;-65
2022/10/04 02:14:22;;;;;;;;;;;;;;;;;;2617620;54;20049;-65
2022/10/04 02:16:52;;;;;;;;;;;;;;;;;;2617459;54;20610;-65
2022/10/04 02:19:22;;;;;;;;;;;;;;;;;;2617538;54;20076;-65
2022/10/04 02:21:51;;;;;;;;;;;;;;;;;;2618101;31;20532;-65
2022/10/04 02:24:20;;;;;;;;;;;;;;;;;;2617697;54;20022;-65
2022/10/04 02:26:50;;;;;;;;;;;;;;;;;;2617452;54;20049;-65
2022/10/04 02:29:19;;;;;;;;;;;;;;;;;;2617457;54;20106;-65
2022/10/04 02:34:30;;;;;;;;;;;;;;;;;;2617245;54;20030;-65
2022/10/04 02:36:59;;;;;;;;;;;;;;;;;;2617683;39;20537;-65
2022/10/04 02:39:29;;;;;;;;;;;;;;;;;;2617138;54;20018;-65
2022/10/04 02:41:58;;;;;;;;;;;;;;;;;;2617435;54;20027;-65
2022/10/04 02:44:28;;;;;;;;;;;;;;;;;;2616972;54;20018;-65
2022/10/04 02:46:57;;;;;;;;;;;;;;;;;;2617224;54;20047;-65
2022/10/04 02:49:26;;;;;;;;;;;;;;;;;;2617425;54;20070;-65
2022/10/04 02:51:55;;;;;;;;;;;;;;;;;;2617042;54;20085;-65
2022/10/04 02:54:26;;;;;;;;;;;;;;;;;;2617169;54;20073;-65
2022/10/04 02:56:55;;;;;;;;;;;;;;;;;;2617136;54;20062;-65
2022/10/04 02:59:24;;;;;;;;;;;;;;;;;;2617383;54;20030;-65
2022/10/04 03:01:54;;;;;;;;;;;;;;;;;;2617298;54;20125;-65
2022/10/04 03:04:23;;;;;;;;;;;;;;;;;;2617272;54;20534;-65
2022/10/04 03:06:53;;;;;;;;;;;;;;;;;;2617447;54;20026;-65
2022/10/04 03:09:22;;;;;;;;;;;;;;;;;;2617275;54;20098;-64
2022/10/04 03:11:56;;;;;;;;;;;;;;;;;;2617195;54;20096;-65
2022/10/04 03:14:26;;;;;;;;;;;;;;;;;;2617683;54;20026;-65
2022/10/04 03:16:55;;;;;;;;;;;;;;;;;;2617366;54;20022;-65
2022/10/04 03:19:25;;;;;;;;;;;;;;;;;;2617015;54;20939;-66
2022/10/04 03:21:55;;;;;;;;;;;;;;;;;;2617344;54;20054;-66
2022/10/04 03:24:24;;;;;;;;;;;;;;;;;;2617339;54;20086;-65
2022/10/04 03:26:53;;;;;;;;;;;;;;;;;;2617225;54;20026;-65
2022/10/04 03:29:22;;;;;;;;;;;;;;;;;;2617103;54;20038;-65
2022/10/04 03:31:52;;;;;;;;;;;;;;;;;;2617168;54;20518;-66
2022/10/04 03:34:21;;;;;;;;;;;;;;;;;;2617328;54;20029;-66
2022/10/04 03:36:51;;;;;;;;;;;;;;;;;;2617191;39;20538;-65
2022/10/04 03:39:20;;;;;;;;;;;;;;;;;;2616953;54;20022;-65
2022/10/04 03:41:49;;;;;;;;;;;;;;;;;;2617602;54;20111;-65
2022/10/04 03:44:19;;;;;;;;;;;;;;;;;;2616404;54;20077;-65
2022/10/04 03:46:49;;;;;;;;;;;;;;;;;;2617009;54;20046;-65
2022/10/04 03:49:19;;;;;;;;;;;;;;;;;;2616399;54;20030;-65
2022/10/04 03:51:48;;;;;;;;;;;;;;;;;;2615579;54;20042;-65
2022/10/04 03:54:17;;;;;;;;;;;;;;;;;;2616406;54;20030;-66
2022/10/04 03:56:46;;;;;;;;;;;;;;;;;;2616459;39;20444;-66
2022/10/04 03:59:16;;;;;;;;;;;;;;;;;;2617025;39;20430;-66
2022/10/04 04:01:46;;;;;;;;;;;;;;;;;;2615848;54;20030;-65
2022/10/04 04:04:15;;;;;;;;;;;;;;;;;;2616534;39;20429;-65
2022/10/04 04:06:44;;;;;;;;;;;;;;;;;;2616908;31;20591;-65
2022/10/04 04:09:14;;;;;;;;;;;;;;;;;;2616331;54;20030;-65
2022/10/04 04:11:43;;;;;;;;;;;;;;;;;;2616714;54;20548;-65
2022/10/04 04:14:12;;;;;;;;;;;;;;;;;;2616897;39;20707;-66
2022/10/04 04:16:42;;;;;;;;;;;;;;;;;;2616478;54;20030;-65
2022/10/04 04:19:11;;;;;;;;;;;;;;;;;;2616855;54;20030;-65
2022/10/04 04:21:40;;;;;;;;;;;;;;;;;;2616634;54;20049;-66
2022/10/04 04:24:10;;;;;;;;;;;;;;;;;;2615936;54;20018;-65
2022/10/04 04:26:39;;;;;;;;;;;;;;;;;;2617043;54;20141;-65
2022/10/04 04:29:09;;;;;;;;;;;;;;;;;;2617075;54;20026;-66
2022/10/04 04:31:39;;;;;;;;;;;;;;;;;;2617245;54;20026;-65
2022/10/04 04:34:08;;;;;;;;;;;;;;;;;;2617437;39;20299;-66
2022/10/04 04:36:38;;;;;;;;;;;;;;;;;;2616793;47;20644;-67
2022/10/04 04:41:49;;;;;;;;;;;;;;;;;;2616211;54;20553;-65
2022/10/04 04:44:19;;;;;;;;;;;;;;;;;;2617275;54;20023;-65
2022/10/04 04:46:48;;;;;;;;;;;;;;;;;;2617454;54;20030;-65
2022/10/04 04:49:17;;;;;;;;;;;;;;;;;;2617480;39;20457;-65
2022/10/04 04:51:47;;;;;;;;;;;;;;;;;;2617368;54;20010;-65
2022/10/04 04:54:16;;;;;;;;;;;;;;;;;;2617760;54;20025;-66
2022/10/04 04:56:45;;;;;;;;;;;;;;;;;;2617102;54;20509;-66
2022/10/04 04:59:15;;;;;;;;;;;;;;;;;;2616532;54;20558;-66
2022/10/04 05:01:44;;;;;;;;;;;;;;;;;;2616886;39;20426;-66
2022/10/04 05:04:14;;;;;;;;;;;;;;;;;;2616576;54;20022;-65
2022/10/04 05:06:43;;;;;;;;;;;;;;;;;;2616884;39;20458;-65
2022/10/04 05:09:12;;;;;;;;;;;;;;;;;;2616244;54;20093;-65
2022/10/04 05:11:42;;;;;;;;;;;;;;;;;;2616445;54;20154;-65
2022/10/04 05:14:11;;;;;;;;;;;;;;;;;;2616577;54;20022;-65
2022/10/04 05:16:41;;;;;;;;;;;;;;;;;;2616698;54;20027;-65
2022/10/04 05:19:10;;;;;;;;;;;;;;;;;;2616777;54;20018;-64
2022/10/04 05:21:39;;;;;;;;;;;;;;;;;;2616519;54;20585;-65
2022/10/04 05:24:10;;;;;;;;;;;;;;;;;;2616606;54;20042;-65
2022/10/04 05:26:40;;;;;;;;;;;;;;;;;;2616774;54;20054;-66
2022/10/04 05:29:09;;;;;;;;;;;;;;;;;;2616803;54;20063;-65
2022/10/04 05:31:38;;;;;;;;;;;;;;;;;;2616752;54;20051;-65
2022/10/04 05:34:08;;;;;;;;;;;;;;;;;;2616823;54;20022;-65
2022/10/04 05:36:38;;;;;;;;;;;;;;;;;;2616936;54;20069;-69
2022/10/04 05:39:07;;;;;;;;;;;;;;;;;;2616442;54;20051;-65
2022/10/04 05:41:38;;;;;;;;;;;;;;;;;;2616585;54;20041;-65
2022/10/04 05:44:07;;;;;;;;;;;;;;;;;;2616689;54;20110;-65
2022/10/04 05:46:36;;;;;;;;;;;;;;;;;;2616598;54;20022;-65
2022/10/04 05:49:11;;;;;;;;;;;;;;;;;;2616477;54;20022;-67
2022/10/04 05:51:44;;;;;;;;;;;;;;;;;;2616773;39;20120;-66
2022/10/04 05:54:14;;;;;;;;;;;;;;;;;;2616708;54;20054;-65
2022/10/04 05:56:45;;;;;;;;;;;;;;;;;;2616715;54;20058;-64
2022/10/04 05:59:14;;;;;;;;;;;;;;;;;;2617119;39;20454;-65
2022/10/04 06:01:43;;;;;;;;;;;;;;;;;;2616528;54;20571;-65
2022/10/04 06:04:13;;;;;;;;;;;;;;;;;;2616552;54;20018;-64
2022/10/04 06:06:42;;;;;;;;;;;;;;;;;;2616300;54;20047;-65
2022/10/04 06:09:11;;;;;;;;;;;;;;;;;;2616623;54;20030;-65
2022/10/04 06:11:41;;;;;;;;;;;;;;;;;;2616569;54;20019;-65
2022/10/04 06:14:10;;;;;;;;;;;;;;;;;;2616095;54;20018;-64
2022/10/04 06:16:40;;;;;;;;;;;;;;;;;;2616547;54;20069;-64
2022/10/04 06:19:09;;;;;;;;;;;;;;;;;;2616573;54;20039;-65
2022/10/04 06:21:38;;;;;;;;;;;;;;;;;;2617286;54;20073;-66
2022/10/04 06:24:09;;;;;;;;;;;;;;;;;;2616756;54;20025;-65
2022/10/04 06:26:39;;;;;;;;;;;;;;;;;;2617118;54;20126;-65
2022/10/04 06:29:09;;;;;;;;;;;;;;;;;;2617500;54;20053;-65
2022/10/04 06:31:38;;;;;;;;;;;;;;;;;;2618025;54;20030;-65
2022/10/04 06:34:08;;;;;;;;;;;;;;;;;;2617530;54;20534;-65
2022/10/04 06:36:38;;;;;;;;;;;;;;;;;;2617396;54;20022;-66
2022/10/04 06:39:07;;;;;;;;;;;;;;;;;;2616993;54;20042;-65
2022/10/04 06:41:37;;;;;;;;;;;;;;;;;;2617394;54;20053;-65
2022/10/04 06:44:06;;;;;;;;;;;;;;;;;;2617099;54;20073;-65
2022/10/04 06:46:36;;;;;;;;;;;;;;;;;;2617444;54;20170;-65
2022/10/04 06:49:06;;;;;;;;;;;;;;;;;;2617128;54;20038;-64
2022/10/04 06:51:35;;;;;;;;;;;;;;;;;;2617465;54;20053;-66
2022/10/04 06:54:05;;;;;;;;;;;;;;;;;;2617378;54;20029;-66
2022/10/04 06:56:34;;;;;;;;;;;;;;;;;;2617252;47;20054;-66
2022/10/04 06:59:04;;;;;;;;;;;;;;;;;;2617242;54;20066;-66
2022/10/04 07:01:33;;;;;;;;;;;;;;;;;;2617611;39;20467;-65
2022/10/04 07:04:03;;;;;;;;;;;;;;;;;;2617212;54;20630;-65
2022/10/04 07:06:32;;;;;;;;;;;;;;;;;;2617804;54;20129;-65
2022/10/04 07:09:04;;;;;;;;;;;;;;;;;;2617297;54;20041;-65
2022/10/04 07:11:34;;;;;;;;;;;;;;;;;;2617302;54;20061;-65
2022/10/04 07:14:03;;;;;;;;;;;;;;;;;;2617078;54;20041;-65
2022/10/04 07:16:32;;;;;;;;;;;;;;;;;;2617269;54;20638;-65
2022/10/04 07:19:02;;;;;;;;;;;;;;;;;;2617637;54;20034;-65
2022/10/04 07:21:31;;;;;;;;;;;;;;;;;;2617243;54;20519;-65
2022/10/04 07:24:02;;;;;;;;;;;;;;;;;;2617336;46;20038;-65
2022/10/04 07:26:31;;;;;;;;;;;;;;;;;;2617209;54;20495;-66
2022/10/04 07:31:46;;;;;;;;;;;;;;;;;;2617492;39;20433;-65
2022/10/04 07:34:15;;;;;;;;;;;;;;;;;;2617071;54;20137;-65
2022/10/04 07:36:44;;;;;;;;;;;;;;;;;;2617330;54;20106;-65
2022/10/04 07:39:14;;;;;;;;;;;;;;;;;;2617034;54;20697;-64
2022/10/04 07:41:44;;;;;;;;;;;;;;;;;;2617160;54;20153;-66
2022/10/04 07:44:14;;;;;;;;;;;;;;;;;;2617121;54;20018;-66
2022/10/04 07:46:44;;;;;;;;;;;;;;;;;;2617314;54;20050;-64
2022/10/04 07:49:13;;;;;;;;;;;;;;;;;;2616919;54;20530;-65
2022/10/04 07:51:43;;;;;;;;;;;;;;;;;;2617089;54;20074;-64
2022/10/04 07:54:13;;;;;;;;;;;;;;;;;;2617072;47;20512;-65
2022/10/04 07:56:42;;;;;;;;;;;;;;;;;;2617270;39;20428;-65
2022/10/04 07:59:11;;;;;;;;;;;;;;;;;;2617027;54;20057;-65
2022/10/04 08:01:41;;;;;;;;;;;;;;;;;;2617054;54;20018;-65
2022/10/04 08:04:10;;;;;;;;;;;;;;;;;;2616765;54;20018;-65
2022/10/04 08:06:40;;;;;;;;;;;;;;;;;;2617351;54;20047;-65
2022/10/04 08:09:09;;;;;;;;;;;;;;;;;;2617378;54;20045;-65
2022/10/04 08:11:39;;;;;;;;;;;;;;;;;;2617069;54;20100;-65
2022/10/04 08:14:08;;;;;;;;;;;;;;;;;;2617004;54;20018;-65
2022/10/04 08:16:38;;;;;;;;;;;;;;;;;;2617138;54;20061;-65
2022/10/04 08:19:08;;;;;;;;;;;;;;;;;;2617155;54;20019;-66
2022/10/04 08:21:38;;;;;;;;;;;;;;;;;;2617021;54;20022;-65
2022/10/04 08:24:07;;;;;;;;;;;;;;;;;;2616908;54;20022;-65
2022/10/04 08:26:37;;;;;;;;;;;;;;;;;;2617375;39;20514;-65
2022/10/04 08:31:51;;;;;;;;;;;;;;;;;;2617092;54;20018;-65
2022/10/04 08:34:20;;;;;;;;;;;;;;;;;;2617277;54;20019;-65
2022/10/04 08:36:50;;;;;;;;;;;;;;;;;;2616988;54;20053;-65
2022/10/04 08:39:19;;;;;;;;;;;;;;;;;;2617068;54;20058;-65
2022/10/04 08:41:48;;;;;;;;;;;;;;;;;;2617386;47;20030;-65
2022/10/04 08:44:18;;;;;;;;;;;;;;;;;;2617501;39;20435;-65
2022/10/04 08:46:47;;;;;;;;;;;;;;;;;;2617435;54;20109;-65
2022/10/04 08:49:16;;;;;;;;;;;;;;;;;;2616840;54;20023;-64
2022/10/04 08:51:46;;;;;;;;;;;;;;;;;;2617094;54;20022;-64
2022/10/04 08:54:15;;;;;;;;;;;;;;;;;;2616846;54;20143;-64
2022/10/04 08:56:44;;;;;;;;;;;;;;;;;;2616764;54;20145;-64
2022/10/04 08:59:14;;;;;;;;;;;;;;;;;;2617035;54;20026;-64
2022/10/04 09:01:43;;;;;;;;;;;;;;;;;;2616867;54;20026;-64
2022/10/04 09:04:13;;;;;;;;;;;;;;;;;;2617125;54;20023;-64
2022/10/04 09:06:43;;;;;;;;;;;;;;;;;;2616755;54;20073;-64
2022/10/04 09:09:12;;;;;;;;;;;;;;;;;;2616901;54;20542;-64
2022/10/04 09:11:42;;;;;;;;;;;;;;;;;;2617077;54;20043;-64
2022/10/04 09:14:11;;;;;;;;;;;;;;;;;;2616816;54;20026;-65
2022/10/04 09:16:40;;;;;;;;;;;;;;;;;;2616742;54;20121;-64
2022/10/04 09:19:10;;;;;;;;;;;;;;;;;;2616733;54;20522;-64
2022/10/04 09:21:39;;;;;;;;;;;;;;;;;;2617057;54;20022;-64
2022/10/04 09:24:09;;;;;;;;;;;;;;;;;;2616834;54;20029;-64
2022/10/04 09:26:38;;;;;;;;;;;;;;;;;;2616710;54;20034;-64
2022/10/04 09:29:07;;;;;;;;;;;;;;;;;;2616483;54;20130;-64
2022/10/04 09:31:37;;;;;;;;;;;;;;;;;;2617200;54;20018;-64
2022/10/04 09:34:06;;;;;;;;;;;;;;;;;;2616732;54;20523;-64
2022/10/04 09:36:39;;;;;;;;;;;;;;;;;;2616710;54;20334;-64
2022/10/04 09:39:08;;;;;;;;;;;;;;;;;;2616717;54;20045;-64
2022/10/04 09:41:57;;;;;;;;;;;;;;;;;;2616903;54;20057;-65
2022/10/04 09:44:26;;;;;;;;;;;;;;;;;;2616611;54;20057;-63
2022/10/04 09:46:56;;;;;;;;;;;;;;;;;;2617369;39;20634;-64
2022/10/04 09:49:26;;;;;;;;;;;;;;;;;;2616593;54;20041;-63
2022/10/04 09:51:55;;;;;;;;;;;;;;;;;;2617248;54;20066;-64
2022/10/04 09:54:25;;;;;;;;;;;;;;;;;;2617590;54;20084;-64
2022/10/04 09:56:55;;;;;;;;;;;;;;;;;;2617386;47;20080;-65
2022/10/04 09:59:25;;;;;;;;;;;;;;;;;;2616782;54;20039;-64
2022/10/04 10:01:55;;;;;;;;;;;;;;;;;;2617737;39;20400;-64
2022/10/04 10:04:24;;;;;;;;;;;;;;;;;;2617349;54;20018;-64
2022/10/04 10:06:53;;;;;;;;;;;;;;;;;;2617475;54;20920;-64
2022/10/04 10:13:38;;;;;;;;;;;;;;;;;;2617439;54;20365;-64
2022/10/04 10:14:54;;;;;;;;;;;;;;;;;;2617248;54;20030;-63
2022/10/04 10:17:23;;;;;;;;;;;;;;;;;;2617390;54;20134;-63
2022/10/04 10:19:53;;;;;;;;;;;;;;;;;;2617919;39;20471;-62
2022/10/04 10:22:26;;;;;;;;;;;;;;;;;;2617802;54;20030;-63
2022/10/04 10:24:56;;;;;;;;;;;;;;;;;;2618239;31;20664;-64
2022/10/04 10:27:26;;;;;;;;;;;;;;;;;;2617501;54;20019;-64
2022/10/04 10:29:55;;;;;;;;;;;;;;;;;;2617548;54;20053;-63
2022/10/04 10:32:25;;;;;;;;;;;;;;;;;;2617392;54;20037;-63
2022/10/04 10:34:54;;;;;;;;;;;;;;;;;;2617476;39;20375;-63
2022/10/04 10:37:24;;;;;;;;;;;;;;;;;;2617590;54;20030;-63
2022/10/04 10:39:55;;;;;;;;;;;;;;;;;;2617238;54;20023;-64
2022/10/04 10:42:26;;;;;;;;;;;;;;;;;;2617638;54;20026;-64
2022/10/04 10:44:55;;;;;;;;;;;;;;;;;;2617233;54;20113;-64
2022/10/04 10:47:30;;;;;;;;;;;;;;;;;;2617023;54;20018;-64
2022/10/04 10:49:59;;;;;;;;;;;;;;;;;;2617126;54;20084;-63
2022/10/04 10:52:29;;;;;;;;;;;;;;;;;;2617138;54;20033;-64
2022/10/04 10:54:58;;;;;;;;;;;;;;;;;;2615630;54;20077;-64
2022/10/04 10:57:27;;;;;;;;;;;;;;;;;;2617166;54;20523;-64
2022/10/04 10:59:58;;;;;;;;;;;;;;;;;;2616695;54;20197;-64
2022/10/04 11:02:27;;;;;;;;;;;;;;;;;;2616189;54;20034;-63
2022/10/04 11:05:16;;;;;;;;;;;;;;;;;;2617274;39;20446;-64
2022/10/04 11:07:45;;;;;;;;;;;;;;;;;;2616814;54;20034;-63
2022/10/04 11:10:15;;;;;;;;;;;;;;;;;;2617292;54;20022;-64
2022/10/04 11:12:44;;;;;;;;;;;;;;;;;;2617544;39;20430;-63
2022/10/04 11:15:15;;;;;;;;;;;;;;;;;;2616350;54;20060;-64
2022/10/04 11:17:45;;;;;;;;;;;;;;;;;;2616314;54;20035;-64
2022/10/04 11:20:14;;;;;;;;;;;;;;;;;;2616733;54;20066;-65
2022/10/04 11:22:44;;;;;;;;;;;;;;;;;;2616968;54;20045;-64
2022/10/04 11:25:13;;;;;;;;;;;;;;;;;;2616183;54;20081;-64
2022/10/04 11:27:43;;;;;;;;;;;;;;;;;;2615919;54;20546;-64
2022/10/04 11:30:19;;;;;;;;;;;;;;;;;;2615875;54;20037;-64
2022/10/04 11:32:49;;;;;;;;;;;;;;;;;;2616230;54;20121;-62
2022/10/04 11:35:18;;;;;;;;;;;;;;;;;;2616897;54;20038;-64
2022/10/04 11:37:47;;;;;;;;;;;;;;;;;;2616093;54;20038;-63
2022/10/04 11:40:17;;;;;;;;;;;;;;;;;;2616121;54;20084;-63
2022/10/04 11:42:47;;;;;;;;;;;;;;;;;;2616065;54;20109;-64
2022/10/04 11:45:16;;;;;;;;;;;;;;;;;;2616438;54;20045;-63
2022/10/04 11:47:46;;;;;;;;;;;;;;;;;;2615952;54;20145;-64
2022/10/04 11:50:15;;;;;;;;;;;;;;;;;;2616216;54;20125;-64
2022/10/04 11:52:45;;;;;;;;;;;;;;;;;;2616647;54;20061;-64
2022/10/04 11:55:16;;;;;;;;;;;;;;;;;;2616164;54;20154;-63
2022/10/04 11:57:45;;;;;;;;;;;;;;;;;;2616191;54;20502;-63
2022/10/04 12:00:15;;;;;;;;;;;;;;;;;;2616326;54;20034;-63
2022/10/04 12:02:45;;;;;;;;;;;;;;;;;;2616136;54;20066;-64
2022/10/04 12:05:14;;;;;;;;;;;;;;;;;;2616266;46;20078;-63
2022/10/04 12:07:43;;;;;;;;;;;;;;;;;;2616321;54;20041;-63
2022/10/04 12:10:13;;;;;;;;;;;;;;;;;;2615856;54;20030;-63
2022/10/04 12:12:42;;;;;;;;;;;;;;;;;;2616310;54;20042;-63
2022/10/04 12:15:12;;;;;;;;;;;;;;;;;;2616062;54;20046;-63
2022/10/04 12:17:42;;;;;;;;;;;;;;;;;;2615956;54;20065;-63
2022/10/04 12:20:13;;;;;;;;;;;;;;;;;;2616058;54;20065;-63
2022/10/04 12:22:42;;;;;;;;;;;;;;;;;;2616236;54;20122;-62
2022/10/04 12:25:11;;;;;;;;;;;;;;;;;;2615969;47;20029;-63
2022/10/04 12:27:41;;;;;;;;;;;;;;;;;;2616122;47;20090;-63
2022/10/04 12:30:10;;;;;;;;;;;;;;;;;;2615846;54;20105;-63
2022/10/04 12:32:39;;;;;;;;;;;;;;;;;;2615971;54;20030;-62
2022/10/04 12:35:09;;;;;;;;;;;;;;;;;;2616045;54;20527;-63
2022/10/04 12:37:39;;;;;;;;;;;;;;;;;;2616239;54;20126;-64
2022/10/04 12:40:08;;;;;;;;;;;;;;;;;;2615995;54;20034;-64
2022/10/04 12:42:38;;;;;;;;;;;;;;;;;;2616586;39;20390;-64
2022/10/04 12:45:07;;;;;;;;;;;;;;;;;;2616648;54;20053;-63
2022/10/04 12:47:37;;;;;;;;;;;;;;;;;;2616210;54;20038;-63
2022/10/04 12:50:06;;;;;;;;;;;;;;;;;;2616198;54;20054;-64
2022/10/04 12:52:35;;;;;;;;;;;;;;;;;;2616121;54;20042;-64
2022/10/04 12:55:05;;;;;;;;;;;;;;;;;;2615962;54;20050;-64
2022/10/04 12:57:34;;;;;;;;;;;;;;;;;;2616123;54;20428;-64
2022/10/04 13:00:03;;;;;;;;;;;;;;;;;;2616437;54;20531;-64
2022/10/04 13:02:33;;;;;;;;;;;;;;;;;;2617132;31;20515;-64
2022/10/04 13:05:03;;;;;;;;;;;;;;;;;;2616292;54;20118;-63
2022/10/04 13:07:32;;;;;;;;;;;;;;;;;;2616511;54;20029;-63
2022/10/04 13:10:02;;;;;;;;;;;;;;;;;;2617141;54;20085;-63
2022/10/04 13:12:51;;;;;;;;;;;;;;;;;;2617294;54;20054;-64
2022/10/04 13:15:21;;;;;;;;;;;;;;;;;;2616405;54;20030;-67
2022/10/04 13:17:51;;;;;;;;;;;;;;;;;;2616032;54;20061;-64
2022/10/04 13:20:20;;;;;;;;;;;;;;;;;;2616192;54;20061;-63
2022/10/04 13:22:49;;;;;;;;;;;;;;;;;;2616690;39;20450;-62
2022/10/04 13:25:25;;;;;;;;;;;;;;;;;;2616203;54;20034;-63
2022/10/04 13:27:54;;;;;;;;;;;;;;;;;;2616431;54;20018;-63
2022/10/04 13:30:26;;;;;;;;;;;;;;;;;;2616015;54;20030;-65
2022/10/04 13:32:56;;;;;;;;;;;;;;;;;;2616804;54;20086;-64
2022/10/04 13:35:25;;;;;;;;;;;;;;;;;;2616144;39;20442;-64
2022/10/04 13:37:54;;;;;;;;;;;;;;;;;;2615808;54;20118;-63
2022/10/04 13:40:24;;;;;;;;;;;;;;;;;;2616274;54;20049;-63
2022/10/04 13:42:53;;;;;;;;;;;;;;;;;;2616037;54;20026;-63
2022/10/04 13:45:23;;;;;;;;;;;;;;;;;;2616231;54;20022;-63
2022/10/04 13:47:52;;;;;;;;;;;;;;;;;;2616184;54;20038;-64
2022/10/04 13:50:21;;;;;;;;;;;;;;;;;;2615944;54;20037;-64
2022/10/04 13:58:14;;;;;;;;;;;;;;;;;;2616671;54;20062;-64
2022/10/04 14:00:43;;;;;;;;;;;;;;;;;;2616631;54;20018;-66
2022/10/04 14:03:13;;;;;;;;;;;;;;;;;;2616783;54;20026;-63
2022/10/04 14:05:42;;;;;;;;;;;;;;;;;;2616674;54;20022;-63
2022/10/04 14:08:11;;;;;;;;;;;;;;;;;;2617079;47;20030;-63
2022/10/04 14:10:41;;;;;;;;;;;;;;;;;;2616309;54;20082;-63
2022/10/04 14:13:10;;;;;;;;;;;;;;;;;;2616951;54;20126;-63
2022/10/04 14:15:40;;;;;;;;;;;;;;;;;;2616234;54;20049;-64
2022/10/04 14:18:10;;;;;;;;;;;;;;;;;;2615705;54;20023;-64
2022/10/04 14:20:39;;;;;;;;;;;;;;;;;;2616078;54;20053;-64
2022/10/04 14:23:09;;;;;;;;;;;;;;;;;;2615528;54;20033;-63
2022/10/04 14:25:38;;;;;;;;;;;;;;;;;;2615323;54;20073;-62
2022/10/04 14:28:08;;;;;;;;;;;;;;;;;;2615189;54;20121;-64
2022/10/04 14:30:37;;;;;;;;;;;;;;;;;;2615463;54;20019;-63
2022/10/04 14:33:07;;;;;;;;;;;;;;;;;;2616497;54;20031;-63
2022/10/04 14:35:36;;;;;;;;;;;;;;;;;;2616598;54;20026;-64
2022/10/04 14:38:06;;;;;;;;;;;;;;;;;;2616461;54;20054;-64
2022/10/04 14:40:35;;;;;;;;;;;;;;;;;;2616392;54;20050;-64
2022/10/04 14:43:05;;;;;;;;;;;;;;;;;;2616384;54;20019;-63
